Time;durP1;ratioP1;P1;durP2;ratioP2;P2;SDS_P1;SDS_P2;PMS_P1;PMS_P2;Temp;Humidity;BMP_temperature;BMP_pressure;BME280_temperature;BME280_humidity;BME280_pressure;Samples;Min_cycle;Max_cycle;Signal;HPM_P1;HPM_P2
2021/10/11 00:02:09;;;;;;;22.95;14.15;;;9.00;99.90;;;;;;4993331;28;20041;-68
2021/10/11 00:04:35;;;;;;;15.70;11.95;;;9.10;99.90;;;;;;4990532;28;20047;-68
2021/10/11 00:07:01;;;;;;;19.17;13.88;;;9.10;99.90;;;;;;4992894;28;20419;-67
2021/10/11 00:09:26;;;;;;;21.17;11.85;;;9.20;99.90;;;;;;4992687;28;20026;-68
2021/10/11 00:11:52;;;;;;;18.08;12.52;;;9.30;99.90;;;;;;4993405;28;20451;-68
2021/10/11 00:14:18;;;;;;;20.02;13.20;;;9.40;99.90;;;;;;4993030;28;20031;-68
2021/10/11 00:16:44;;;;;;;15.45;11.55;;;9.30;99.90;;;;;;4992711;28;20027;-68
2021/10/11 00:19:09;;;;;;;20.08;12.13;;;9.30;99.90;;;;;;4991704;28;20027;-68
2021/10/11 00:21:35;;;;;;;21.58;12.23;;;9.30;99.90;;;;;;4992148;28;20034;-68
2021/10/11 00:24:01;;;;;;;17.55;11.93;;;9.30;99.90;;;;;;4992731;28;20117;-68
2021/10/11 00:26:27;;;;;;;20.83;14.07;;;9.30;99.90;;;;;;4992453;28;20031;-68
2021/10/11 00:28:52;;;;;;;17.58;12.25;;;9.40;99.90;;;;;;4992822;28;20511;-68
2021/10/11 00:31:18;;;;;;;21.48;12.40;;;9.30;99.90;;;;;;4991776;28;20142;-68
2021/10/11 00:33:43;;;;;;;19.65;11.95;;;9.30;99.90;;;;;;4992227;28;20247;-69
2021/10/11 00:36:09;;;;;;;16.52;11.43;;;9.30;99.90;;;;;;4991689;28;20431;-68
2021/10/11 00:38:35;;;;;;;16.38;11.75;;;9.20;99.90;;;;;;4990826;28;20034;-69
2021/10/11 00:41:01;;;;;;;17.70;11.68;;;9.30;99.90;;;;;;4998253;28;20030;-66
2021/10/11 00:43:26;;;;;;;17.27;13.05;;;9.30;99.90;;;;;;5011079;28;20030;-68
2021/10/11 00:45:52;;;;;;;18.35;12.35;;;9.20;99.90;;;;;;5011904;28;20470;-68
2021/10/11 00:48:17;;;;;;;18.05;12.52;;;9.20;99.90;;;;;;5013058;28;20037;-68
2021/10/11 00:50:43;;;;;;;17.17;12.48;;;9.10;99.90;;;;;;5011956;28;20065;-68
2021/10/11 00:53:09;;;;;;;17.65;12.57;;;9.00;99.90;;;;;;5012002;28;20037;-68
2021/10/11 00:55:35;;;;;;;21.25;13.00;;;9.00;99.90;;;;;;5011469;28;20025;-67
2021/10/11 00:58:01;;;;;;;19.42;13.80;;;9.00;99.90;;;;;;5011860;28;20034;-67
2021/10/11 01:00:27;;;;;;;23.05;13.90;;;9.00;99.90;;;;;;5011549;28;20378;-68
2021/10/11 01:02:53;;;;;;;18.92;12.30;;;9.00;99.90;;;;;;5011743;28;20029;-66
2021/10/11 01:05:18;;;;;;;21.85;11.85;;;9.00;99.90;;;;;;5010197;28;20453;-67
2021/10/11 01:07:45;;;;;;;19.30;13.18;;;8.90;99.90;;;;;;5011491;28;20025;-68
2021/10/11 01:10:10;;;;;;;19.13;12.18;;;9.00;99.90;;;;;;5010449;28;20102;-68
2021/10/11 01:12:36;;;;;;;18.95;12.52;;;9.00;99.90;;;;;;5009764;28;20468;-68
2021/10/11 01:15:02;;;;;;;18.60;12.52;;;9.10;99.90;;;;;;5011614;28;20106;-68
2021/10/11 01:17:28;;;;;;;18.50;12.55;;;8.90;99.90;;;;;;5010539;28;20095;-69
2021/10/11 01:19:57;;;;;;;23.33;12.85;;;9.00;99.90;;;;;;5011451;28;20467;-68
2021/10/11 01:22:37;;;;;;;18.95;14.20;;;9.00;99.90;;;;;;5011311;28;20021;-68
2021/10/11 01:25:04;;;;;;;17.58;12.43;;;8.90;99.90;;;;;;5011379;28;20083;-68
2021/10/11 01:27:30;;;;;;;20.02;12.70;;;8.90;99.90;;;;;;5011032;28;20121;-68
2021/10/11 01:29:56;;;;;;;18.08;11.80;;;8.90;99.90;;;;;;5009843;28;20124;-68
2021/10/11 01:32:23;;;;;;;17.88;12.60;;;9.00;99.90;;;;;;5011747;28;20153;-68
2021/10/11 01:34:49;;;;;;;16.38;12.25;;;9.00;99.90;;;;;;5010972;28;20022;-66
2021/10/11 01:37:15;;;;;;;20.10;12.88;;;8.90;99.90;;;;;;5009481;28;20041;-67
2021/10/11 01:39:40;;;;;;;18.48;12.90;;;8.80;99.90;;;;;;5009043;28;20030;-67
2021/10/11 01:42:06;;;;;;;16.13;11.52;;;8.80;99.90;;;;;;5009898;28;20030;-67
2021/10/11 01:44:33;;;;;;;19.42;12.48;;;8.90;99.90;;;;;;5010479;28;20044;-67
2021/10/11 01:46:58;;;;;;;18.73;11.95;;;8.80;99.90;;;;;;5010907;28;20029;-67
2021/10/11 01:49:24;;;;;;;19.00;12.50;;;8.90;99.90;;;;;;5009727;28;20387;-67
2021/10/11 01:51:49;;;;;;;21.45;12.57;;;8.80;99.90;;;;;;5008990;28;20029;-67
2021/10/11 01:54:15;;;;;;;15.38;11.63;;;8.70;99.90;;;;;;5010848;28;20049;-67
2021/10/11 01:56:41;;;;;;;17.67;12.02;;;8.70;99.90;;;;;;5009196;28;20030;-67
2021/10/11 01:59:06;;;;;;;18.75;12.32;;;8.70;99.90;;;;;;5010495;28;20088;-67
2021/10/11 02:01:32;;;;;;;17.38;12.00;;;8.70;99.90;;;;;;5010207;28;20436;-68
2021/10/11 02:03:57;;;;;;;17.42;11.48;;;8.60;99.90;;;;;;5010983;28;20032;-68
2021/10/11 02:06:23;;;;;;;29.65;12.23;;;8.60;99.90;;;;;;4991260;28;20049;-67
2021/10/11 02:08:49;;;;;;;15.98;12.00;;;8.50;99.90;;;;;;4989424;28;20053;-67
2021/10/11 02:11:15;;;;;;;15.85;11.00;;;8.50;99.90;;;;;;4989946;28;20022;-67
2021/10/11 02:13:41;;;;;;;21.85;11.75;;;8.60;99.90;;;;;;4989215;28;20023;-67
2021/10/11 02:16:06;;;;;;;18.92;13.93;;;8.60;99.90;;;;;;4989818;28;20104;-67
2021/10/11 02:18:32;;;;;;;17.10;11.60;;;8.60;99.90;;;;;;4990299;28;20037;-69
2021/10/11 02:20:57;;;;;;;18.70;13.13;;;8.60;99.90;;;;;;4989782;28;20416;-67
2021/10/11 02:23:23;;;;;;;18.15;12.23;;;8.50;99.90;;;;;;4990927;28;20026;-67
2021/10/11 02:25:49;;;;;;;19.70;13.25;;;8.50;99.90;;;;;;4990681;28;20086;-67
2021/10/11 02:28:14;;;;;;;13.93;11.07;;;8.50;99.90;;;;;;4989869;28;20469;-67
2021/10/11 02:30:40;;;;;;;19.02;12.80;;;8.50;99.90;;;;;;4994629;28;20038;-68
2021/10/11 02:33:05;;;;;;;19.10;13.80;;;8.50;99.90;;;;;;4995042;28;20081;-67
2021/10/11 02:35:31;;;;;;;17.60;11.57;;;8.40;99.90;;;;;;4994939;28;20023;-75
2021/10/11 02:37:57;;;;;;;17.58;12.23;;;8.40;99.90;;;;;;4993501;28;20045;-67
2021/10/11 02:40:23;;;;;;;17.42;11.57;;;8.50;99.90;;;;;;4994640;28;20062;-68
2021/10/11 02:42:48;;;;;;;19.52;13.00;;;8.40;99.90;;;;;;4994419;28;20027;-67
2021/10/11 02:45:14;;;;;;;17.40;12.48;;;8.20;99.90;;;;;;4993612;28;20134;-68
2021/10/11 02:47:40;;;;;;;20.15;12.63;;;8.20;99.90;;;;;;4992929;28;20337;-66
2021/10/11 02:50:06;;;;;;;18.77;12.10;;;8.30;99.90;;;;;;4993337;28;20384;-67
2021/10/11 02:52:33;;;;;;;19.48;12.77;;;8.20;99.90;;;;;;4994819;28;20105;-69
2021/10/11 02:55:03;;;;;;;18.58;12.23;;;8.30;99.90;;;;;;4993439;28;20035;-67
2021/10/11 02:57:28;;;;;;;17.20;12.02;;;8.30;99.90;;;;;;4994082;28;20399;-67
2021/10/11 02:59:54;;;;;;;17.30;12.75;;;8.30;99.90;;;;;;4992230;28;20026;-67
2021/10/11 03:02:20;;;;;;;16.95;12.55;;;8.30;99.90;;;;;;4993192;28;20035;-67
2021/10/11 03:04:46;;;;;;;16.67;11.70;;;8.30;99.90;;;;;;4999818;28;20050;-67
2021/10/11 03:07:11;;;;;;;17.73;12.65;;;8.10;99.90;;;;;;5014003;28;20065;-67
2021/10/11 03:09:37;;;;;;;17.88;11.68;;;8.10;99.90;;;;;;5013282;28;20025;-67
2021/10/11 03:12:03;;;;;;;17.17;12.10;;;8.10;99.90;;;;;;5014131;28;20059;-67
2021/10/11 03:14:29;;;;;;;16.90;12.60;;;8.10;99.90;;;;;;5012318;28;20471;-67
2021/10/11 03:16:54;;;;;;;17.42;12.95;;;8.00;99.90;;;;;;5013241;28;20032;-68
2021/10/11 03:19:20;;;;;;;17.63;12.45;;;8.10;99.90;;;;;;5013799;28;20376;-67
2021/10/11 03:21:45;;;;;;;15.00;11.77;;;8.10;99.90;;;;;;5013148;28;20034;-67
2021/10/11 03:24:11;;;;;;;17.75;12.00;;;8.20;99.90;;;;;;5012309;28;20033;-67
2021/10/11 03:26:37;;;;;;;16.23;11.27;;;8.20;99.90;;;;;;5013192;28;20037;-67
2021/10/11 03:29:02;;;;;;;15.45;11.63;;;8.00;99.90;;;;;;5013224;28;20030;-67
2021/10/11 03:31:28;;;;;;;17.60;11.13;;;8.00;99.90;;;;;;5013848;28;20137;-67
2021/10/11 03:33:53;;;;;;;19.17;12.50;;;7.90;99.90;;;;;;5013423;28;20117;-68
2021/10/11 03:36:19;;;;;;;16.70;11.98;;;7.90;99.90;;;;;;5013531;28;20061;-67
2021/10/11 03:38:45;;;;;;;18.35;12.95;;;7.80;99.90;;;;;;5011524;28;20432;-68
2021/10/11 03:41:10;;;;;;;22.35;11.18;;;7.70;99.90;;;;;;5012830;28;20110;-67
2021/10/11 03:43:36;;;;;;;15.88;11.20;;;7.80;99.90;;;;;;5011104;28;20383;-69
2021/10/11 03:46:02;;;;;;;19.60;11.70;;;7.80;99.90;;;;;;5013674;28;20037;-67
2021/10/11 03:48:27;;;;;;;24.48;11.52;;;7.90;99.90;;;;;;5011885;28;20104;-67
2021/10/11 03:50:53;;;;;;;22.23;12.30;;;7.70;99.90;;;;;;5012633;28;20032;-66
2021/10/11 03:53:19;;;;;;;22.85;12.30;;;7.50;99.90;;;;;;5013055;28;20025;-67
2021/10/11 03:55:45;;;;;;;18.05;12.02;;;7.40;99.90;;;;;;5010751;28;20121;-67
2021/10/11 03:58:11;;;;;;;28.60;13.35;;;7.50;99.90;;;;;;5012857;28;20041;-67
2021/10/11 04:00:37;;;;;;;20.38;12.18;;;7.50;99.90;;;;;;5012593;28;20034;-74
2021/10/11 04:03:07;;;;;;;19.77;12.05;;;7.60;99.90;;;;;;5012809;28;20022;-67
2021/10/11 04:05:33;;;;;;;16.30;11.23;;;7.60;99.90;;;;;;5011075;28;20045;-66
2021/10/11 04:08:05;;;;;;;18.85;11.90;;;7.60;99.90;;;;;;5011394;28;20525;-66
2021/10/11 04:10:34;;;;;;;17.38;12.45;;;7.60;99.90;;;;;;5012729;28;20050;-67
2021/10/11 04:13:05;;;;;;;15.77;11.32;;;7.60;99.90;;;;;;5010887;28;20117;-67
2021/10/11 04:15:31;;;;;;;18.75;11.27;;;7.60;99.90;;;;;;5012886;28;20033;-67
2021/10/11 04:17:56;;;;;;;23.75;13.48;;;7.70;99.90;;;;;;5010698;28;20129;-67
2021/10/11 04:20:22;;;;;;;24.60;14.05;;;7.60;99.90;;;;;;5010961;28;20033;-67
2021/10/11 04:22:48;;;;;;;18.88;13.45;;;7.70;99.90;;;;;;5010678;28;20026;-67
2021/10/11 04:25:14;;;;;;;17.25;12.80;;;7.60;99.90;;;;;;5011170;28;20030;-67
2021/10/11 04:27:40;;;;;;;22.05;13.13;;;7.60;99.90;;;;;;5011993;28;20433;-67
2021/10/11 04:30:07;;;;;;;19.75;12.35;;;7.50;99.90;;;;;;5010537;28;20099;-67
2021/10/11 04:32:33;;;;;;;18.83;12.45;;;7.60;99.90;;;;;;5010866;28;20378;-67
2021/10/11 04:34:59;;;;;;;32.97;14.95;;;7.60;99.90;;;;;;5009949;28;20056;-67
2021/10/11 04:37:26;;;;;;;20.48;12.70;;;7.40;99.90;;;;;;5010516;28;20410;-66
2021/10/11 04:39:51;;;;;;;20.67;13.77;;;7.30;99.90;;;;;;5011235;28;20471;-67
2021/10/11 04:42:17;;;;;;;22.65;13.10;;;7.40;99.90;;;;;;5012067;28;20041;-67
2021/10/11 04:44:43;;;;;;;21.98;14.00;;;7.40;99.90;;;;;;5010019;28;20044;-67
2021/10/11 04:47:08;;;;;;;20.65;14.48;;;7.50;99.90;;;;;;5010427;28;20438;-67
2021/10/11 04:49:34;;;;;;;22.00;13.52;;;7.30;99.90;;;;;;5011062;28;20026;-67
2021/10/11 04:52:00;;;;;;;22.08;12.77;;;7.40;99.90;;;;;;5009196;28;20030;-67
2021/10/11 04:54:25;;;;;;;26.13;13.88;;;7.50;99.90;;;;;;5010629;28;20567;-68
2021/10/11 04:56:51;;;;;;;16.65;11.75;;;7.40;99.90;;;;;;5011230;28;20033;-67
2021/10/11 04:59:17;;;;;;;20.60;13.55;;;7.50;99.90;;;;;;5011988;28;20085;-67
2021/10/11 05:01:42;;;;;;;20.80;12.73;;;7.40;99.90;;;;;;5011761;28;20530;-68
2021/10/11 05:04:09;;;;;;;20.40;13.95;;;7.30;99.90;;;;;;5010244;28;20061;-67
2021/10/11 05:06:35;;;;;;;27.73;14.90;;;7.30;99.90;;;;;;5010220;28;20436;-67
2021/10/11 05:09:01;;;;;;;23.88;13.50;;;7.10;99.90;;;;;;5010024;28;20072;-68
2021/10/11 05:11:28;;;;;;;18.40;12.15;;;7.10;99.90;;;;;;5011845;28;20018;-67
2021/10/11 05:13:54;;;;;;;21.92;13.48;;;7.30;99.90;;;;;;5011415;28;20022;-67
2021/10/11 05:16:20;;;;;;;20.42;12.65;;;7.30;99.90;;;;;;5011946;28;20420;-67
2021/10/11 05:18:46;;;;;;;19.58;12.75;;;7.40;99.90;;;;;;5010782;28;20116;-67
2021/10/11 05:21:11;;;;;;;17.48;12.68;;;7.30;99.90;;;;;;5009928;28;20113;-68
2021/10/11 05:23:37;;;;;;;20.95;14.23;;;7.20;99.90;;;;;;5010138;28;20037;-68
2021/10/11 05:26:03;;;;;;;21.17;14.23;;;7.20;99.90;;;;;;5009395;28;20034;-68
2021/10/11 05:28:28;;;;;;;22.60;13.40;;;7.20;99.90;;;;;;5009965;28;20360;-66
2021/10/11 05:30:54;;;;;;;25.05;14.60;;;7.10;99.90;;;;;;5009324;28;20049;-67
2021/10/11 05:33:22;;;;;;;24.08;13.85;;;7.10;99.90;;;;;;5009781;28;20022;-68
2021/10/11 05:35:49;;;;;;;25.88;13.25;;;6.90;99.90;;;;;;5009327;28;20033;-68
2021/10/11 05:38:14;;;;;;;22.35;13.52;;;6.80;99.90;;;;;;5011097;28;20040;-67
2021/10/11 05:40:40;;;;;;;19.73;13.43;;;6.70;99.90;;;;;;5011289;28;20026;-68
2021/10/11 05:43:07;;;;;;;20.75;14.05;;;6.70;99.90;;;;;;5010413;28;20113;-67
2021/10/11 05:45:33;;;;;;;23.85;14.15;;;6.70;99.90;;;;;;5011244;28;20037;-66
2021/10/11 05:47:59;;;;;;;22.27;14.52;;;6.70;99.90;;;;;;5010584;28;20137;-67
2021/10/11 05:50:24;;;;;;;26.33;14.30;;;6.60;99.90;;;;;;5009764;28;20034;-67
2021/10/11 05:52:50;;;;;;;34.35;13.88;;;6.80;99.90;;;;;;5008917;28;20361;-68
2021/10/11 05:55:16;;;;;;;23.75;14.02;;;6.70;99.90;;;;;;5009104;28;20080;-67
2021/10/11 05:57:41;;;;;;;24.65;14.60;;;6.80;99.90;;;;;;5009558;28;20037;-67
2021/10/11 06:00:08;;;;;;;22.85;13.75;;;6.70;99.90;;;;;;5008434;28;20034;-67
2021/10/11 06:02:34;;;;;;;22.00;13.68;;;6.80;99.90;;;;;;5009330;28;20041;-67
2021/10/11 06:05:01;;;;;;;28.08;14.18;;;6.90;99.90;;;;;;5009950;28;20050;-67
2021/10/11 06:07:28;;;;;;;34.53;14.85;;;7.10;99.90;;;;;;5009313;28;20041;-67
2021/10/11 06:09:55;;;;;;;26.73;13.73;;;7.10;99.90;;;;;;5010110;28;20382;-69
2021/10/11 06:12:20;;;;;;;25.70;13.77;;;7.20;99.90;;;;;;5009339;28;20053;-67
2021/10/11 06:14:46;;;;;;;28.20;14.90;;;7.10;99.90;;;;;;5008741;28;20119;-68
2021/10/11 06:17:12;;;;;;;20.10;13.02;;;7.20;99.90;;;;;;5009256;28;20030;-67
2021/10/11 06:19:38;;;;;;;23.20;12.13;;;7.30;99.90;;;;;;5009174;28;20045;-67
2021/10/11 06:22:03;;;;;;;25.08;14.02;;;7.30;99.90;;;;;;5008571;28;20073;-67
2021/10/11 06:24:29;;;;;;;22.38;12.52;;;7.40;99.90;;;;;;5010411;28;20463;-68
2021/10/11 06:26:57;;;;;;;22.75;12.75;;;7.30;99.90;;;;;;5010281;28;20085;-67
2021/10/11 06:29:23;;;;;;;20.50;13.00;;;7.30;99.90;;;;;;5008533;28;20034;-67
2021/10/11 06:31:48;;;;;;;22.15;12.70;;;7.60;99.90;;;;;;5008585;28;20030;-67
2021/10/11 06:34:14;;;;;;;27.25;13.40;;;7.40;99.90;;;;;;5009223;28;20022;-67
2021/10/11 06:36:40;;;;;;;24.30;12.88;;;7.60;99.90;;;;;;5009242;28;20129;-67
2021/10/11 06:39:05;;;;;;;31.75;12.70;;;7.60;99.90;;;;;;5009633;28;20253;-68
2021/10/11 06:41:33;;;;;;;26.52;12.93;;;7.80;99.90;;;;;;5009292;28;20037;-67
2021/10/11 06:43:59;;;;;;;24.55;13.50;;;7.80;99.90;;;;;;5009806;28;20344;-67
2021/10/11 06:46:25;;;;;;;23.10;12.60;;;7.60;99.90;;;;;;5009260;28;20022;-67
2021/10/11 06:48:51;;;;;;;20.15;12.82;;;7.70;99.90;;;;;;5009296;28;20033;-67
2021/10/11 06:51:16;;;;;;;20.38;12.65;;;7.60;99.90;;;;;;5008665;28;20030;-67
2021/10/11 06:53:42;;;;;;;29.05;14.27;;;7.60;99.90;;;;;;5009981;28;20078;-68
2021/10/11 06:56:08;;;;;;;29.08;12.93;;;7.70;99.90;;;;;;5008580;28;20025;-67
2021/10/11 06:58:44;;;;;;;19.70;12.95;;;7.60;99.90;;;;;;5010346;28;20444;-67
2021/10/11 07:01:09;;;;;;;22.95;15.13;;;7.50;99.90;;;;;;5010242;28;20037;-67
2021/10/11 07:03:37;;;;;;;27.67;14.25;;;7.50;99.90;;;;;;5009975;28;20095;-67
2021/10/11 07:06:07;;;;;;;28.23;15.77;;;7.40;99.90;;;;;;5007716;28;20501;-68
2021/10/11 07:08:33;;;;;;;30.52;16.52;;;7.60;99.90;;;;;;5008692;28;20057;-68
2021/10/11 07:10:59;;;;;;;24.42;15.18;;;7.70;99.90;;;;;;5009773;28;20034;-67
2021/10/11 07:13:26;;;;;;;28.70;15.32;;;7.80;99.90;;;;;;5008891;28;20056;-68
2021/10/11 07:15:52;;;;;;;27.70;16.52;;;8.00;99.90;;;;;;5012636;28;20022;-67
2021/10/11 07:18:18;;;;;;;32.00;15.30;;;8.00;99.90;;;;;;5012441;28;20419;-67
2021/10/11 07:20:45;;;;;;;33.97;15.48;;;7.80;99.90;;;;;;5012398;28;20038;-67
2021/10/11 07:23:12;;;;;;;24.45;15.07;;;7.90;99.90;;;;;;5011775;28;20474;-66
2021/10/11 07:25:39;;;;;;;28.83;15.30;;;7.90;99.90;;;;;;5012570;28;20030;-67
2021/10/11 07:28:05;;;;;;;21.80;13.88;;;7.90;99.90;;;;;;5011278;28;20037;-67
2021/10/11 07:30:31;;;;;;;22.38;14.25;;;8.00;99.90;;;;;;5000729;28;20038;-68
2021/10/11 07:32:59;;;;;;;21.45;14.50;;;8.20;99.90;;;;;;4991664;28;20061;-68
2021/10/11 07:35:25;;;;;;;20.55;14.25;;;8.40;99.90;;;;;;4993494;28;20022;-68
2021/10/11 07:37:50;;;;;;;21.08;13.93;;;8.50;99.90;;;;;;4991633;28;20030;-71
2021/10/11 07:40:17;;;;;;;26.40;14.63;;;8.40;99.90;;;;;;4993639;28;20108;-68
2021/10/11 07:42:42;;;;;;;23.90;15.82;;;8.30;99.90;;;;;;4994017;28;20109;-67
2021/10/11 07:45:08;;;;;;;27.00;13.48;;;8.30;99.90;;;;;;4992747;28;20207;-68
2021/10/11 07:47:34;;;;;;;26.08;15.10;;;8.20;99.90;;;;;;4993671;28;20025;-68
2021/10/11 07:49:59;;;;;;;22.48;14.13;;;8.30;99.90;;;;;;4992736;28;20027;-68
2021/10/11 07:52:25;;;;;;;23.95;14.48;;;8.10;99.90;;;;;;4992546;28;20451;-68
2021/10/11 07:54:51;;;;;;;28.98;15.48;;;8.00;99.90;;;;;;4992886;28;20388;-71
2021/10/11 07:57:16;;;;;;;28.20;15.43;;;8.00;99.90;;;;;;4993381;28;20030;-67
2021/10/11 07:59:42;;;;;;;20.73;14.80;;;8.00;99.90;;;;;;4991332;28;20038;-67
2021/10/11 08:02:08;;;;;;;25.75;14.32;;;7.90;99.90;;;;;;4991921;28;20042;-67
2021/10/11 08:04:34;;;;;;;19.15;14.00;;;7.90;99.90;;;;;;4994628;28;20050;-67
2021/10/11 08:07:01;;;;;;;22.85;14.27;;;7.90;99.90;;;;;;5013079;28;20126;-67
2021/10/11 08:09:27;;;;;;;29.55;16.75;;;7.80;99.90;;;;;;5012450;28;20148;-67
2021/10/11 08:11:53;;;;;;;27.60;14.70;;;7.60;99.90;;;;;;5012642;28;20072;-68
2021/10/11 08:14:18;;;;;;;24.23;15.43;;;7.60;99.90;;;;;;5011570;28;20077;-67
2021/10/11 08:16:45;;;;;;;22.80;14.93;;;7.80;99.90;;;;;;5011253;28;20022;-67
2021/10/11 08:19:11;;;;;;;25.73;14.57;;;8.00;99.90;;;;;;5010914;28;20496;-68
2021/10/11 08:21:37;;;;;;;26.33;14.70;;;7.90;99.90;;;;;;5011422;28;20030;-68
2021/10/11 08:24:07;;;;;;;22.13;14.80;;;7.90;99.90;;;;;;5011962;28;20195;-68
2021/10/11 08:26:34;;;;;;;18.35;13.43;;;7.70;99.90;;;;;;5010828;28;20061;-66
2021/10/11 08:29:02;;;;;;;24.40;13.60;;;7.80;99.90;;;;;;5012170;28;20041;-67
2021/10/11 08:31:28;;;;;;;22.15;12.73;;;7.80;99.90;;;;;;5006036;28;20030;-67
2021/10/11 08:33:54;;;;;;;20.80;13.93;;;7.90;99.90;;;;;;5002695;28;20460;-67
2021/10/11 08:36:20;;;;;;;21.05;14.13;;;7.90;99.90;;;;;;5002594;28;20036;-69
2021/10/11 08:38:45;;;;;;;20.67;14.57;;;7.90;99.90;;;;;;4999236;28;20062;-67
2021/10/11 08:41:11;;;;;;;24.13;15.13;;;8.00;99.90;;;;;;4998598;28;20448;-67
2021/10/11 08:43:39;;;;;;;23.67;13.63;;;8.20;99.90;;;;;;4998974;28;20027;-67
2021/10/11 08:46:05;;;;;;;22.30;13.98;;;8.30;99.90;;;;;;4999878;28;20100;-67
2021/10/11 08:48:32;;;;;;;32.92;15.38;;;8.50;99.90;;;;;;5000470;28;20030;-65
2021/10/11 08:50:59;;;;;;;23.38;15.10;;;8.40;99.90;;;;;;5003587;28;20448;-66
2021/10/11 08:53:25;;;;;;;22.92;15.60;;;8.40;99.90;;;;;;5000327;28;20026;-66
2021/10/11 08:55:51;;;;;;;28.70;16.30;;;8.40;99.90;;;;;;5000314;28;20072;-66
2021/10/11 08:58:16;;;;;;;27.67;15.80;;;8.60;99.90;;;;;;5002548;28;20031;-67
2021/10/11 09:00:43;;;;;;;23.50;15.27;;;8.70;99.90;;;;;;5006296;28;20041;-66
2021/10/11 09:03:10;;;;;;;23.95;15.60;;;8.80;99.90;;;;;;5009923;28;20037;-66
2021/10/11 09:05:38;;;;;;;27.65;16.42;;;8.90;99.90;;;;;;5012215;28;20120;-68
2021/10/11 09:08:13;;;;;;;23.27;16.63;;;8.80;99.90;;;;;;5009596;28;20048;-66
2021/10/11 09:10:53;;;;;;;25.77;16.45;;;8.90;99.90;;;;;;5012093;28;20128;-67
2021/10/11 09:13:22;;;;;;;27.50;17.23;;;8.90;99.90;;;;;;5010130;28;20478;-67
2021/10/11 09:16:02;;;;;;;27.45;16.95;;;8.90;99.90;;;;;;5010814;28;20431;-68
2021/10/11 09:18:29;;;;;;;28.33;16.58;;;8.90;99.90;;;;;;5012000;28;20136;-67
2021/10/11 09:20:56;;;;;;;29.38;16.90;;;9.00;99.90;;;;;;5012373;28;20069;-67
2021/10/11 09:23:23;;;;;;;24.25;16.13;;;9.10;99.90;;;;;;5010256;28;20371;-68
2021/10/11 09:25:49;;;;;;;24.67;15.50;;;9.20;99.90;;;;;;5010221;28;20030;-66
2021/10/11 09:28:18;;;;;;;23.15;15.80;;;9.30;99.90;;;;;;5010942;28;20099;-67
2021/10/11 09:30:47;;;;;;;24.77;15.88;;;9.50;99.90;;;;;;5011613;28;20034;-66
2021/10/11 09:33:18;;;;;;;26.83;17.73;;;9.50;99.90;;;;;;4992386;28;20038;-66
2021/10/11 09:35:45;;;;;;;23.45;15.77;;;9.50;99.90;;;;;;5009800;28;20425;-66
2021/10/11 09:38:23;;;;;;;24.73;16.67;;;9.40;99.90;;;;;;5009303;28;20072;-66
2021/10/11 09:40:55;;;;;;;22.95;16.85;;;9.40;99.90;;;;;;5009516;28;20147;-66
2021/10/11 09:43:25;;;;;;;26.63;17.98;;;9.50;99.90;;;;;;5009071;28;20026;-66
2021/10/11 09:45:52;;;;;;;26.67;17.67;;;9.60;99.90;;;;;;5009968;28;20029;-66
2021/10/11 09:48:19;;;;;;;30.88;17.52;;;9.60;99.90;;;;;;5009496;28;20284;-66
2021/10/11 09:50:45;;;;;;;24.35;17.73;;;9.90;99.90;;;;;;5009765;28;20471;-67
2021/10/11 09:53:14;;;;;;;27.63;18.65;;;10.20;99.90;;;;;;5008870;28;20030;-66
2021/10/11 09:55:41;;;;;;;33.25;19.35;;;10.30;99.90;;;;;;5009366;28;20103;-67
2021/10/11 09:58:13;;;;;;;27.63;19.75;;;10.30;99.90;;;;;;5009778;28;20033;-66
2021/10/11 10:00:41;;;;;;;30.27;19.10;;;10.20;99.90;;;;;;5009125;28;20428;-67
2021/10/11 10:03:12;;;;;;;30.77;19.50;;;10.40;99.90;;;;;;5010126;28;20049;-66
2021/10/11 10:05:41;;;;;;;34.53;21.30;;;10.40;99.90;;;;;;5009549;28;20541;-66
2021/10/11 10:08:14;;;;;;;28.92;19.95;;;10.30;99.90;;;;;;5008588;28;20034;-66
2021/10/11 10:10:41;;;;;;;33.20;21.17;;;10.50;99.90;;;;;;5008876;28;20033;-67
2021/10/11 10:13:18;;;;;;;34.03;21.60;;;10.20;99.90;;;;;;5008231;28;20361;-66
2021/10/11 10:15:45;;;;;;;29.63;21.40;;;10.40;99.90;;;;;;5010400;28;20448;-67
2021/10/11 10:18:14;;;;;;;36.60;20.65;;;10.40;99.90;;;;;;5008689;28;20383;-67
2021/10/11 10:20:57;;;;;;;32.20;21.25;;;10.50;99.90;;;;;;5025603;28;20072;-67
2021/10/11 10:23:28;;;;;;;29.85;21.52;;;10.40;99.90;;;;;;5008723;28;20048;-67
2021/10/11 10:25:59;;;;;;;36.72;20.35;;;10.20;99.90;;;;;;5009242;28;20129;-66
2021/10/11 10:28:29;;;;;;;33.88;21.95;;;10.30;99.90;;;;;;5008981;28;20038;-66
2021/10/11 10:30:59;;;;;;;33.75;20.50;;;10.10;99.90;;;;;;5010359;28;20121;-66
2021/10/11 10:33:41;;;;;;;34.50;20.83;;;10.30;99.90;;;;;;5010485;28;20033;-68
2021/10/11 10:36:21;;;;;;;34.30;20.95;;;10.40;99.90;;;;;;5010394;28;20050;-67
2021/10/11 10:39:03;;;;;;;31.33;20.90;;;10.30;99.90;;;;;;5010683;28;20117;-67
2021/10/11 10:41:31;;;;;;;42.60;22.58;;;10.30;99.90;;;;;;5010500;28;20033;-67
2021/10/11 10:43:57;;;;;;;34.75;21.27;;;10.50;99.90;;;;;;5010177;28;20026;-67
2021/10/11 10:46:23;;;;;;;32.28;21.50;;;10.60;99.90;;;;;;5008329;28;20022;-66
2021/10/11 10:48:54;;;;;;;32.08;21.23;;;10.60;99.90;;;;;;5008721;28;20121;-67
2021/10/11 10:51:20;;;;;;;35.75;21.67;;;10.70;99.90;;;;;;5013020;28;20453;-67
2021/10/11 10:53:55;;;;;;;36.70;21.65;;;10.90;99.90;;;;;;5012930;28;20332;-67
2021/10/11 10:56:22;;;;;;;31.77;20.80;;;10.70;99.90;;;;;;5011789;28;20683;-66
2021/10/11 10:58:49;;;;;;;29.80;19.63;;;10.70;99.90;;;;;;5012334;28;20082;-67
2021/10/11 11:01:24;;;;;;;29.20;21.60;;;10.60;99.90;;;;;;5012022;28;20457;-66
2021/10/11 11:03:50;;;;;;;34.30;21.15;;;10.90;99.90;;;;;;5014261;28;20375;-67
2021/10/11 11:06:26;;;;;;;29.40;20.98;;;11.10;99.90;;;;;;5011387;28;20086;-67
2021/10/11 11:08:59;;;;;;;29.88;20.73;;;11.30;99.90;;;;;;5013912;28;20121;-67
2021/10/11 11:11:29;;;;;;;33.17;21.50;;;11.40;99.90;;;;;;5011824;28;20116;-67
2021/10/11 11:13:59;;;;;;;35.70;21.05;;;11.30;99.90;;;;;;5012521;28;20029;-67
2021/10/11 11:16:30;;;;;;;36.40;20.77;;;11.40;99.90;;;;;;5013077;28;20049;-68
2021/10/11 11:18:57;;;;;;;31.98;21.25;;;11.50;99.90;;;;;;5013872;28;20041;-68
2021/10/11 11:21:24;;;;;;;35.15;22.27;;;11.70;99.90;;;;;;5012981;28;20452;-68
2021/10/11 11:23:49;;;;;;;37.03;23.00;;;11.90;99.90;;;;;;5013353;28;20479;-68
2021/10/11 11:26:16;;;;;;;32.20;19.30;;;11.90;99.90;;;;;;5013061;28;20029;-68
2021/10/11 11:28:43;;;;;;;36.92;22.23;;;11.90;99.90;;;;;;5013381;28;20102;-67
2021/10/11 11:31:11;;;;;;;37.78;22.27;;;11.90;99.90;;;;;;5011613;28;20022;-68
2021/10/11 11:33:46;;;;;;;32.17;20.83;;;11.80;99.90;;;;;;5012204;28;20026;-67
2021/10/11 11:36:12;;;;;;;35.30;22.10;;;11.90;99.90;;;;;;5012616;28;20487;-67
2021/10/11 11:38:40;;;;;;;33.47;21.35;;;11.80;99.90;;;;;;5013323;28;20119;-66
2021/10/11 11:41:06;;;;;;;31.65;22.80;;;11.70;99.90;;;;;;5013026;28;20025;-66
2021/10/11 11:43:42;;;;;;;33.42;23.13;;;11.60;99.90;;;;;;5013661;28;20467;-67
2021/10/11 11:46:10;;;;;;;35.97;21.27;;;11.30;99.90;;;;;;5011322;28;20029;-67
2021/10/11 11:48:39;;;;;;;36.50;23.30;;;11.40;99.90;;;;;;5011816;28;20037;-68
2021/10/11 11:51:09;;;;;;;39.22;22.60;;;11.30;99.90;;;;;;5010970;28;20080;-70
2021/10/11 11:53:37;;;;;;;35.85;24.13;;;11.30;99.90;;;;;;5012992;28;20069;-67
2021/10/11 11:56:04;;;;;;;36.95;23.98;;;11.40;99.90;;;;;;5012983;28;20030;-67
2021/10/11 11:58:31;;;;;;;31.48;22.23;;;11.50;99.90;;;;;;5011136;28;20112;-68
2021/10/11 12:01:00;;;;;;;38.13;23.25;;;11.60;99.90;;;;;;5010904;28;20038;-67
2021/10/11 12:03:31;;;;;;;35.20;22.23;;;11.40;99.90;;;;;;5010704;28;20569;-67
2021/10/11 12:05:59;;;;;;;38.72;24.42;;;11.40;99.90;;;;;;5010416;28;20134;-67
2021/10/11 12:08:25;;;;;;;37.33;25.70;;;11.40;99.90;;;;;;5012126;28;20105;-67
2021/10/11 12:11:10;;;;;;;36.85;24.40;;;11.50;99.90;;;;;;5011365;28;20121;-67
2021/10/11 12:13:38;;;;;;;42.63;23.55;;;11.50;99.90;;;;;;5011354;28;20026;-67
2021/10/11 12:16:10;;;;;;;42.65;25.13;;;11.60;99.90;;;;;;5012549;28;20503;-68
2021/10/11 12:18:46;;;;;;;41.80;22.85;;;11.90;99.90;;;;;;5011179;28;20068;-67
2021/10/11 12:21:31;;;;;;;35.13;23.75;;;12.00;99.90;;;;;;5011946;28;20042;-68
2021/10/11 12:24:11;;;;;;;31.90;21.98;;;12.20;99.90;;;;;;5010643;28;20057;-68
2021/10/11 12:26:51;;;;;;;34.33;23.35;;;12.40;99.90;;;;;;5012499;28;20073;-67
2021/10/11 12:29:19;;;;;;;35.08;23.25;;;12.50;99.90;;;;;;5026629;28;20049;-68
2021/10/11 12:31:58;;;;;;;34.90;22.58;;;12.50;99.90;;;;;;5011032;28;20303;-67
2021/10/11 12:34:39;;;;;;;36.22;22.10;;;12.50;99.90;;;;;;5009851;28;20025;-68
2021/10/11 12:37:10;;;;;;;30.88;22.65;;;12.40;99.90;;;;;;5010818;28;20068;-67